Nearby METAR Reports

 

KPLU - Puyallup/Thun, Washington, USA
Distance from station: SSW 10mi, 16km
Updated: Tue, 23-Jul-2024 3:35pm PDT
Clear
Clear
 Wind from varies
Wind: varies 6 mph, 9 km/h, Gust: 13 mph, 20 km/h
Temperature: 75°F, 24°C
Dew Point: 48°F, 9°C
Humidity: 39%
Barometer: 30.12 inHg, 1020 hPa
Clouds: Clear
Visibility: 9 miles, 14 km
2024/07/23 22:35 KPLU 232235Z AUTO VRB05G11KT 9SM CLR 24/09 A3012 RMK AO2
KTCM - Tacoma/Mc Chord, Washington, USA
Distance from station: SW 15mi, 24km
Updated: Tue, 23-Jul-2024 3:55pm PDT
Clear
Clear
 Wind from N
Wind: N 6 mph, 9 km/h
Temperature: 75°F, 24°C
Dew Point: 43°F, 6°C
Humidity: 31%
Barometer: 30.11 inHg, 1019.6 hPa
Clouds: Clear
Visibility: 10 miles, 16 km
2024/07/23 22:55 KTCM 232255Z AUTO 35005KT 10SM CLR 24/06 A3011 RMK AO2 SLP199 T02400063
 
KSEA - Seattle/Metro, Washington, USA
Distance from station: NNW 16mi, 25km
Updated: Tue, 23-Jul-2024 3:53pm PDT
Few Clouds
Few Clouds
 Wind from WNW
Wind: WNW 10 mph, 17 km/h
Temperature: 73°F, 23°C
Dew Point: 45°F, 7°C
Humidity: 36%
Barometer: 30.12 inHg, 1020 hPa
Clouds: Few Clouds
Visibility: 10 miles, 16 km
Cloud details: Few Clouds 4000 ft
2024/07/23 22:53 KSEA 232253Z 29009KT 10SM FEW040 23/07 A3012 RMK AO2 SLP204 T02330067
KRNT - Renton, Washington, USA
Distance from station: N 18mi, 29km
Updated: Tue, 23-Jul-2024 3:53pm PDT
Clear
Clear
 Wind from NNW
Wind: NNW 12 mph, 19 km/h
Temperature: 75°F, 24°C
Dew Point: 48°F, 9°C
Humidity: 39%
Barometer: 30.10 inHg, 1019.3 hPa
Clouds: Clear
Visibility: 8 miles, 13 km
2024/07/23 22:53 KRNT 232253Z 33010KT 8SM CLR 24/09 A3010 RMK AO2 SLP199 T02440089
 
KTIW - Tacoma, Washington, USA
Distance from station: W 18mi, 29km
Updated: Tue, 23-Jul-2024 3:53pm PDT
Clear
Clear
 Wind from ENE
Wind: ENE 7 mph, 11 km/h
Temperature: 75°F, 24°C
Dew Point: 46°F, 8°C
Humidity: 36%
Barometer: 30.12 inHg, 1020 hPa
Clouds: Clear
Visibility: 10 miles, 16 km
2024/07/23 22:53 KTIW 232253Z 06006KT 10SM CLR 24/08 A3012 RMK AO2 SLP195 T02390083
KGRF - Fort Lewis/Gray, Washington, USA
Distance from station: SW 21mi, 33km
Updated: Tue, 23-Jul-2024 3:55pm PDT
Clear
Clear
 Wind from NW
Wind: NW 7 mph, 11 km/h
Temperature: 77°F, 25°C
Dew Point: 48°F, 9°C
Humidity: 36%
Barometer: 30.08 inHg, 1018.6 hPa
Clouds: Clear
Visibility: 10 miles, 16 km
2024/07/23 22:55 KGRF 232255Z AUTO 31006KT 10SM CLR 25/09 A3008 RMK AO2 SLP189 T02480087 $
 
KBFI - Seattle/Boeing, Washington, USA
Distance from station: NNW 22mi, 36km
Updated: Tue, 23-Jul-2024 3:53pm PDT
Clear
Clear
 Wind from WNW
Wind: WNW 7 mph, 11 km/h
Temperature: 73°F, 23°C
Dew Point: 46°F, 8°C
Humidity: 38%
Barometer: 30.11 inHg, 1019.6 hPa
Clouds: Clear
Visibility: 10 miles, 16 km
2024/07/23 22:53 KBFI 232253Z 30006KT 10SM CLR 23/08 A3011 RMK AO2 SLP195 T02330078
KPWT - Bremerton Ntnl, Washington, USA
Distance from station: NW 31mi, 50km
Updated: Tue, 23-Jul-2024 3:56pm PDT
Clear
Clear
 Wind from ENE
Wind: ENE 10 mph, 17 km/h
Temperature: 73°F, 23°C
Dew Point: 52°F, 11°C
Humidity: 47%
Barometer: 30.12 inHg, 1020 hPa
Clouds: Clear
Visibility: 10 miles, 16 km
2024/07/23 22:56 KPWT 232256Z AUTO 06009KT 10SM CLR 23/11 A3012 RMK AO2 SLP202 T02330111
 
KOLM - Olympia, Washington, USA
Distance from station: WSW 38mi, 60km
Updated: Tue, 23-Jul-2024 3:54pm PDT
Clear
Clear
 Wind from NNE
Wind: NNE 8 mph, 13 km/h
Temperature: 77°F, 25°C
Dew Point: 48°F, 9°C
Humidity: 36%
Barometer: 30.11 inHg, 1019.6 hPa
Clouds: Clear
Visibility: 10 miles, 16 km
2024/07/23 22:54 KOLM 232254Z 03007KT 10SM CLR 25/09 A3011 RMK AO2 SLP197 T02500089 $
KSMP - Stampede Pass, Washington, USA
Distance from station: E 41mi, 66km
Updated: Tue, 23-Jul-2024 3:56pm PDT
Clear
Clear
 Wind from W
Wind: W 3 mph, 6 km/h
Temperature: 68°F, 20°C
Dew Point: 48°F, 9°C
Humidity: 49%
Barometer: 30.17 inHg, 1021.7 hPa
Clouds: Clear
Visibility: 10 miles, 16 km
2024/07/23 22:56 KSMP 232256Z AUTO 27003KT 10SM CLR 20/09 A3017 RMK AO2 SLP197 T02000094
 
KSHN - Shelton, Washington, USA
Distance from station: W 43mi, 70km
Updated: Tue, 23-Jul-2024 3:53pm PDT
Clear
Clear
 Wind from varies
Wind: varies 7 mph, 11 km/h
Temperature: 77°F, 25°C
Dew Point: 48°F, 9°C
Humidity: 36%
Barometer: 30.08 inHg, 1018.6 hPa
Clouds: Clear
Visibility: 10 miles, 16 km
2024/07/23 22:53 KSHN 232253Z AUTO VRB06KT 10SM CLR 25/09 A3008 RMK AO2 SLP185 T02500094
KPAE - Everett, Washington, USA
Distance from station: N 47mi, 76km
Updated: Tue, 23-Jul-2024 3:53pm PDT
Clear
Clear
 Wind from N
Wind: N 8 mph, 13 km/h
Temperature: 73°F, 23°C
Dew Point: 46°F, 8°C
Humidity: 38%
Barometer: 30.14 inHg, 1020.7 hPa
Clouds: Clear
Visibility: 10 miles, 16 km
2024/07/23 22:53 KPAE 232253Z AUTO 01007KT 10SM CLR 23/08 A3014 RMK AO2 SLP204 T02280083